Briefing drone pour Talant

Rechercher une autre localisation

Conditions de vol :


Nous sommes le : Lundi 28 septembre 2020
Il est 18:13 UTC (20:13 LT)

Lever de soleil : 05:08 UTC (07:08 LT)
Coucher de soleil : 17:52 UTC (19:52 LT)

Météo

L'essentiel des conditions de vol

VIGILANCE MÉTÉO FRANCE - Côte-dOr (21)
Pas de vigilances particulieres
METAR de LFSD
LFSD 281800Z AUTO 19008KT 8000 -RA FEW005 OVC017 12/12 Q1015

Date d'émission: 28/09/2020
Heure d'émission: 18:00 UTC
Vent: 190° pour 8 KT (15 km/h)
Visibilité horizontale: 8000 m
Plafond :
- Peu de nuages à 500ft (152m)
- Couvert à 1700ft (518m)
Température: 12 °C
Point de rosée: 12 °C
Humidité: 100%
Pression (QNH): 1015 hPa
Conditions: Faible pluie
TAF de LFSD
LFSD 010600Z 0100/0124 CNL

Conditions prévues :

Heure d'émission : Bulletin éffectué le 01 à 00:00 UTC
Prévision : Valide du 01 a 00:00 UTC au 01 a 23:59 UTC
Nuages : à 0ft (0 m)
WEBCAM POUR TALANT

Réglementation

Voler en sécurité

CARTES AERONAUTIQUE 1/500.000
CARTES VAC (LFSD)
SUP AIP




Chargement des AIP...
NOTAM (TALANT + Terrain à proximité / FIR )




Chargement des NOTAMS...
CONTACT PREFECTURE 21
Côte-dOr (21) : pref-drone@cote-dor.gouv.fr


Avertissement : Les données mises à disposition sont indicatives. Oxygène Drone ne pourra être tenu responsable de dégâts causés aux biens et aux personnes.